sensor_id;sensor_type;location;lat;lon;timestamp;P1;durP1;ratioP1;P2;durP2;ratioP2
15876;SDS011;8037;51.666;7.834;2024-02-26T00:01:27;0.70;;;0.70;;
15876;SDS011;8037;51.666;7.834;2024-02-26T00:03:53;1.47;;;1.37;;
15876;SDS011;8037;51.666;7.834;2024-02-26T00:06:20;1.83;;;1.10;;
15876;SDS011;8037;51.666;7.834;2024-02-26T00:08:46;1.10;;;1.00;;
15876;SDS011;8037;51.666;7.834;2024-02-26T00:11:12;1.13;;;1.03;;
15876;SDS011;8037;51.666;7.834;2024-02-26T00:13:37;1.73;;;1.03;;
15876;SDS011;8037;51.666;7.834;2024-02-26T00:16:03;1.47;;;1.37;;
15876;SDS011;8037;51.666;7.834;2024-02-26T00:18:31;1.37;;;1.33;;
15876;SDS011;8037;51.666;7.834;2024-02-26T00:20:57;3.07;;;1.40;;
15876;SDS011;8037;51.666;7.834;2024-02-26T00:23:23;1.20;;;1.20;;
15876;SDS011;8037;51.666;7.834;2024-02-26T00:25:49;1.83;;;1.43;;
15876;SDS011;8037;51.666;7.834;2024-02-26T00:28:15;1.40;;;1.30;;
15876;SDS011;8037;51.666;7.834;2024-02-26T00:30:41;3.87;;;1.60;;
15876;SDS011;8037;51.666;7.834;2024-02-26T00:33:07;1.37;;;1.20;;
15876;SDS011;8037;51.666;7.834;2024-02-26T00:35:32;1.40;;;1.30;;
15876;SDS011;8037;51.666;7.834;2024-02-26T00:37:58;1.30;;;1.20;;
15876;SDS011;8037;51.666;7.834;2024-02-26T00:40:25;1.40;;;1.30;;
15876;SDS011;8037;51.666;7.834;2024-02-26T00:42:52;1.50;;;1.40;;
15876;SDS011;8037;51.666;7.834;2024-02-26T00:45:19;1.50;;;1.40;;
15876;SDS011;8037;51.666;7.834;2024-02-26T00:47:45;1.17;;;1.17;;
15876;SDS011;8037;51.666;7.834;2024-02-26T00:50:12;1.57;;;1.10;;
15876;SDS011;8037;51.666;7.834;2024-02-26T00:52:38;1.37;;;0.70;;
15876;SDS011;8037;51.666;7.834;2024-02-26T00:55:04;0.87;;;0.87;;
15876;SDS011;8037;51.666;7.834;2024-02-26T00:57:31;1.17;;;1.03;;
15876;SDS011;8037;51.666;7.834;2024-02-26T00:59:56;1.20;;;1.20;;
15876;SDS011;8037;51.666;7.834;2024-02-26T01:02:22;1.23;;;0.77;;
15876;SDS011;8037;51.666;7.834;2024-02-26T01:04:48;1.27;;;1.20;;
15876;SDS011;8037;51.666;7.834;2024-02-26T01:07:14;1.63;;;1.23;;
15876;SDS011;8037;51.666;7.834;2024-02-26T01:09:40;5.70;;;1.30;;
15876;SDS011;8037;51.666;7.834;2024-02-26T01:12:06;1.17;;;1.17;;
15876;SDS011;8037;51.666;7.834;2024-02-26T01:14:31;0.87;;;0.87;;
15876;SDS011;8037;51.666;7.834;2024-02-26T01:16:57;0.80;;;0.80;;
15876;SDS011;8037;51.666;7.834;2024-02-26T01:19:22;0.80;;;0.60;;
15876;SDS011;8037;51.666;7.834;2024-02-26T01:21:48;0.90;;;0.87;;
15876;SDS011;8037;51.666;7.834;2024-02-26T01:24:14;1.10;;;1.00;;
15876;SDS011;8037;51.666;7.834;2024-02-26T01:26:40;2.27;;;1.00;;
15876;SDS011;8037;51.666;7.834;2024-02-26T01:29:06;0.80;;;0.80;;
15876;SDS011;8037;51.666;7.834;2024-02-26T01:31:32;0.90;;;0.90;;
15876;SDS011;8037;51.666;7.834;2024-02-26T01:33:58;1.00;;;0.90;;
15876;SDS011;8037;51.666;7.834;2024-02-26T01:36:23;1.00;;;1.00;;
15876;SDS011;8037;51.666;7.834;2024-02-26T01:38:50;0.70;;;0.70;;
15876;SDS011;8037;51.666;7.834;2024-02-26T01:41:16;0.80;;;0.80;;
15876;SDS011;8037;51.666;7.834;2024-02-26T01:43:42;0.97;;;0.90;;
15876;SDS011;8037;51.666;7.834;2024-02-26T01:46:11;0.80;;;0.80;;
15876;SDS011;8037;51.666;7.834;2024-02-26T01:48:41;1.07;;;0.87;;
15876;SDS011;8037;51.666;7.834;2024-02-26T01:51:07;0.70;;;0.70;;
15876;SDS011;8037;51.666;7.834;2024-02-26T01:53:33;0.80;;;0.80;;
15876;SDS011;8037;51.666;7.834;2024-02-26T01:56:00;1.23;;;1.03;;
15876;SDS011;8037;51.666;7.834;2024-02-26T01:58:26;0.70;;;0.70;;
15876;SDS011;8037;51.666;7.834;2024-02-26T02:00:52;3.77;;;1.07;;
15876;SDS011;8037;51.666;7.834;2024-02-26T02:03:18;1.00;;;1.00;;
15876;SDS011;8037;51.666;7.834;2024-02-26T02:05:44;0.80;;;0.80;;
15876;SDS011;8037;51.666;7.834;2024-02-26T02:08:10;0.90;;;0.90;;
15876;SDS011;8037;51.666;7.834;2024-02-26T02:23:09;0.90;;;0.77;;
15876;SDS011;8037;51.666;7.834;2024-02-26T02:25:35;0.87;;;0.73;;
15876;SDS011;8037;51.666;7.834;2024-02-26T02:28:01;1.60;;;0.87;;
15876;SDS011;8037;51.666;7.834;2024-02-26T02:30:28;8.87;;;0.80;;
15876;SDS011;8037;51.666;7.834;2024-02-26T02:32:54;3.37;;;0.70;;
15876;SDS011;8037;51.666;7.834;2024-02-26T02:35:21;1.37;;;1.10;;
15876;SDS011;8037;51.666;7.834;2024-02-26T02:37:47;0.70;;;0.70;;
15876;SDS011;8037;51.666;7.834;2024-02-26T02:40:13;1.03;;;1.03;;
15876;SDS011;8037;51.666;7.834;2024-02-26T02:42:39;0.73;;;0.73;;
15876;SDS011;8037;51.666;7.834;2024-02-26T02:45:05;2.20;;;0.83;;
15876;SDS011;8037;51.666;7.834;2024-02-26T02:47:31;0.50;;;0.50;;
15876;SDS011;8037;51.666;7.834;2024-02-26T02:49:56;0.87;;;0.87;;
15876;SDS011;8037;51.666;7.834;2024-02-26T02:52:22;3.33;;;0.63;;
15876;SDS011;8037;51.666;7.834;2024-02-26T02:54:48;0.70;;;0.70;;
15876;SDS011;8037;51.666;7.834;2024-02-26T02:57:14;0.70;;;0.60;;
15876;SDS011;8037;51.666;7.834;2024-02-26T02:59:40;3.23;;;0.83;;
15876;SDS011;8037;51.666;7.834;2024-02-26T03:02:06;0.60;;;0.60;;
15876;SDS011;8037;51.666;7.834;2024-02-26T03:04:32;1.33;;;0.80;;
15876;SDS011;8037;51.666;7.834;2024-02-26T03:06:58;0.90;;;0.90;;
15876;SDS011;8037;51.666;7.834;2024-02-26T03:09:25;3.97;;;0.60;;
15876;SDS011;8037;51.666;7.834;2024-02-26T03:11:51;0.67;;;0.67;;
15876;SDS011;8037;51.666;7.834;2024-02-26T03:14:17;0.60;;;0.60;;
15876;SDS011;8037;51.666;7.834;2024-02-26T03:16:43;3.63;;;0.97;;
15876;SDS011;8037;51.666;7.834;2024-02-26T03:19:09;1.30;;;0.60;;
15876;SDS011;8037;51.666;7.834;2024-02-26T03:21:34;0.50;;;0.50;;
15876;SDS011;8037;51.666;7.834;2024-02-26T03:24:00;0.57;;;0.57;;
15876;SDS011;8037;51.666;7.834;2024-02-26T03:26:26;0.50;;;0.50;;
15876;SDS011;8037;51.666;7.834;2024-02-26T03:28:52;0.70;;;0.70;;
15876;SDS011;8037;51.666;7.834;2024-02-26T03:31:18;0.77;;;0.67;;
15876;SDS011;8037;51.666;7.834;2024-02-26T03:33:46;0.50;;;0.50;;
15876;SDS011;8037;51.666;7.834;2024-02-26T03:36:12;0.90;;;0.90;;
15876;SDS011;8037;51.666;7.834;2024-02-26T03:38:38;0.73;;;0.73;;
15876;SDS011;8037;51.666;7.834;2024-02-26T03:41:04;0.80;;;0.60;;
15876;SDS011;8037;51.666;7.834;2024-02-26T03:43:29;0.70;;;0.70;;
15876;SDS011;8037;51.666;7.834;2024-02-26T03:45:55;0.50;;;0.50;;
15876;SDS011;8037;51.666;7.834;2024-02-26T03:48:21;0.60;;;0.60;;
15876;SDS011;8037;51.666;7.834;2024-02-26T03:50:47;0.70;;;0.70;;
15876;SDS011;8037;51.666;7.834;2024-02-26T03:53:13;1.03;;;0.83;;
15876;SDS011;8037;51.666;7.834;2024-02-26T03:55:39;0.70;;;0.70;;
15876;SDS011;8037;51.666;7.834;2024-02-26T03:58:06;0.83;;;0.60;;
15876;SDS011;8037;51.666;7.834;2024-02-26T04:00:32;0.97;;;0.70;;
15876;SDS011;8037;51.666;7.834;2024-02-26T04:02:58;0.70;;;0.70;;
15876;SDS011;8037;51.666;7.834;2024-02-26T04:05:24;0.70;;;0.70;;
15876;SDS011;8037;51.666;7.834;2024-02-26T04:07:49;0.73;;;0.73;;
15876;SDS011;8037;51.666;7.834;2024-02-26T04:10:15;0.80;;;0.80;;
15876;SDS011;8037;51.666;7.834;2024-02-26T04:12:42;0.80;;;0.67;;
15876;SDS011;8037;51.666;7.834;2024-02-26T04:15:09;3.03;;;0.87;;
15876;SDS011;8037;51.666;7.834;2024-02-26T04:17:35;2.53;;;1.13;;
15876;SDS011;8037;51.666;7.834;2024-02-26T04:20:02;0.87;;;0.83;;
15876;SDS011;8037;51.666;7.834;2024-02-26T04:22:28;0.60;;;0.60;;
15876;SDS011;8037;51.666;7.834;2024-02-26T04:24:54;0.80;;;0.80;;
15876;SDS011;8037;51.666;7.834;2024-02-26T04:27:20;1.60;;;1.13;;
15876;SDS011;8037;51.666;7.834;2024-02-26T04:29:46;1.00;;;1.00;;
15876;SDS011;8037;51.666;7.834;2024-02-26T04:32:11;6.30;;;0.90;;
15876;SDS011;8037;51.666;7.834;2024-02-26T04:34:37;0.83;;;0.80;;
15876;SDS011;8037;51.666;7.834;2024-02-26T04:37:03;0.50;;;0.50;;
15876;SDS011;8037;51.666;7.834;2024-02-26T04:39:29;2.93;;;1.03;;
15876;SDS011;8037;51.666;7.834;2024-02-26T04:41:55;1.17;;;1.00;;
15876;SDS011;8037;51.666;7.834;2024-02-26T04:44:21;3.20;;;0.90;;
15876;SDS011;8037;51.666;7.834;2024-02-26T04:46:46;0.97;;;0.97;;
15876;SDS011;8037;51.666;7.834;2024-02-26T04:49:12;0.70;;;0.70;;
15876;SDS011;8037;51.666;7.834;2024-02-26T04:51:38;0.77;;;0.77;;
15876;SDS011;8037;51.666;7.834;2024-02-26T04:54:04;1.57;;;0.60;;
15876;SDS011;8037;51.666;7.834;2024-02-26T04:56:30;0.67;;;0.67;;
15876;SDS011;8037;51.666;7.834;2024-02-26T04:58:56;1.23;;;0.60;;
15876;SDS011;8037;51.666;7.834;2024-02-26T05:01:22;4.43;;;0.93;;
15876;SDS011;8037;51.666;7.834;2024-02-26T05:03:48;0.80;;;0.80;;
15876;SDS011;8037;51.666;7.834;2024-02-26T05:06:14;0.90;;;0.90;;
15876;SDS011;8037;51.666;7.834;2024-02-26T05:08:40;1.80;;;0.70;;
15876;SDS011;8037;51.666;7.834;2024-02-26T05:11:06;0.90;;;0.90;;
15876;SDS011;8037;51.666;7.834;2024-02-26T05:13:32;0.70;;;0.70;;
15876;SDS011;8037;51.666;7.834;2024-02-26T05:15:58;0.70;;;0.60;;
15876;SDS011;8037;51.666;7.834;2024-02-26T05:18:24;0.97;;;0.70;;
15876;SDS011;8037;51.666;7.834;2024-02-26T05:20:50;0.63;;;0.63;;
15876;SDS011;8037;51.666;7.834;2024-02-26T05:23:16;0.60;;;0.60;;
15876;SDS011;8037;51.666;7.834;2024-02-26T05:25:42;1.83;;;0.67;;
15876;SDS011;8037;51.666;7.834;2024-02-26T05:28:07;0.57;;;0.57;;
15876;SDS011;8037;51.666;7.834;2024-02-26T05:30:33;0.60;;;0.60;;
15876;SDS011;8037;51.666;7.834;2024-02-26T05:32:59;1.33;;;0.60;;
15876;SDS011;8037;51.666;7.834;2024-02-26T05:35:25;1.63;;;1.30;;
15876;SDS011;8037;51.666;7.834;2024-02-26T05:37:51;0.80;;;0.80;;
15876;SDS011;8037;51.666;7.834;2024-02-26T05:40:18;0.97;;;0.50;;
15876;SDS011;8037;51.666;7.834;2024-02-26T05:42:44;0.87;;;0.87;;
15876;SDS011;8037;51.666;7.834;2024-02-26T05:45:10;1.00;;;1.00;;
15876;SDS011;8037;51.666;7.834;2024-02-26T05:47:36;0.70;;;0.70;;
15876;SDS011;8037;51.666;7.834;2024-02-26T05:50:07;1.60;;;0.80;;
15876;SDS011;8037;51.666;7.834;2024-02-26T05:52:35;1.07;;;0.83;;
15876;SDS011;8037;51.666;7.834;2024-02-26T05:55:01;0.50;;;0.50;;
15876;SDS011;8037;51.666;7.834;2024-02-26T05:57:28;0.83;;;0.80;;
15876;SDS011;8037;51.666;7.834;2024-02-26T05:59:54;1.83;;;0.93;;
15876;SDS011;8037;51.666;7.834;2024-02-26T06:02:19;1.80;;;1.00;;
15876;SDS011;8037;51.666;7.834;2024-02-26T06:04:45;2.33;;;1.50;;
15876;SDS011;8037;51.666;7.834;2024-02-26T06:07:12;0.60;;;0.60;;
15876;SDS011;8037;51.666;7.834;2024-02-26T06:09:38;0.70;;;0.70;;
15876;SDS011;8037;51.666;7.834;2024-02-26T06:12:04;0.93;;;0.93;;
15876;SDS011;8037;51.666;7.834;2024-02-26T06:14:30;0.47;;;0.47;;
15876;SDS011;8037;51.666;7.834;2024-02-26T06:16:56;0.83;;;0.83;;
15876;SDS011;8037;51.666;7.834;2024-02-26T06:19:22;0.60;;;0.60;;
15876;SDS011;8037;51.666;7.834;2024-02-26T06:21:48;1.37;;;0.47;;
15876;SDS011;8037;51.666;7.834;2024-02-26T06:24:15;4.90;;;0.90;;
15876;SDS011;8037;51.666;7.834;2024-02-26T06:26:41;0.60;;;0.60;;
15876;SDS011;8037;51.666;7.834;2024-02-26T06:29:07;0.63;;;0.63;;
15876;SDS011;8037;51.666;7.834;2024-02-26T06:31:33;0.53;;;0.50;;
15876;SDS011;8037;51.666;7.834;2024-02-26T06:33:59;0.80;;;0.70;;
15876;SDS011;8037;51.666;7.834;2024-02-26T06:36:24;0.60;;;0.60;;
15876;SDS011;8037;51.666;7.834;2024-02-26T06:38:50;1.37;;;0.70;;
15876;SDS011;8037;51.666;7.834;2024-02-26T06:41:19;0.60;;;0.57;;
15876;SDS011;8037;51.666;7.834;2024-02-26T06:43:44;0.60;;;0.60;;
15876;SDS011;8037;51.666;7.834;2024-02-26T06:46:10;0.97;;;0.70;;
15876;SDS011;8037;51.666;7.834;2024-02-26T06:48:36;4.13;;;0.70;;
15876;SDS011;8037;51.666;7.834;2024-02-26T06:51:02;1.30;;;1.30;;
15876;SDS011;8037;51.666;7.834;2024-02-26T06:53:28;1.27;;;0.90;;
15876;SDS011;8037;51.666;7.834;2024-02-26T06:55:54;1.10;;;1.00;;
15876;SDS011;8037;51.666;7.834;2024-02-26T06:58:20;0.57;;;0.50;;
15876;SDS011;8037;51.666;7.834;2024-02-26T07:00:46;1.17;;;1.07;;
15876;SDS011;8037;51.666;7.834;2024-02-26T07:03:12;2.00;;;0.60;;
15876;SDS011;8037;51.666;7.834;2024-02-26T07:05:38;1.10;;;1.00;;
15876;SDS011;8037;51.666;7.834;2024-02-26T07:08:05;1.10;;;0.90;;
15876;SDS011;8037;51.666;7.834;2024-02-26T07:10:31;2.40;;;0.80;;
15876;SDS011;8037;51.666;7.834;2024-02-26T07:12:57;0.77;;;0.77;;
15876;SDS011;8037;51.666;7.834;2024-02-26T07:15:22;1.17;;;0.67;;
15876;SDS011;8037;51.666;7.834;2024-02-26T07:17:48;1.90;;;0.90;;
15876;SDS011;8037;51.666;7.834;2024-02-26T07:20:15;1.33;;;1.20;;
15876;SDS011;8037;51.666;7.834;2024-02-26T07:22:43;0.80;;;0.80;;
15876;SDS011;8037;51.666;7.834;2024-02-26T07:25:09;0.83;;;0.67;;
15876;SDS011;8037;51.666;7.834;2024-02-26T07:27:38;0.67;;;0.67;;
15876;SDS011;8037;51.666;7.834;2024-02-26T07:30:04;1.50;;;0.90;;
15876;SDS011;8037;51.666;7.834;2024-02-26T07:32:30;3.70;;;0.90;;
15876;SDS011;8037;51.666;7.834;2024-02-26T07:34:56;1.20;;;1.00;;
15876;SDS011;8037;51.666;7.834;2024-02-26T07:37:22;0.90;;;0.90;;
15876;SDS011;8037;51.666;7.834;2024-02-26T07:39:48;1.17;;;1.07;;
15876;SDS011;8037;51.666;7.834;2024-02-26T07:42:14;4.93;;;1.07;;
15876;SDS011;8037;51.666;7.834;2024-02-26T07:44:40;0.80;;;0.80;;
15876;SDS011;8037;51.666;7.834;2024-02-26T07:47:08;0.60;;;0.53;;
15876;SDS011;8037;51.666;7.834;2024-02-26T07:49:34;0.53;;;0.53;;
15876;SDS011;8037;51.666;7.834;2024-02-26T07:52:00;2.07;;;1.20;;
15876;SDS011;8037;51.666;7.834;2024-02-26T07:54:26;1.63;;;1.07;;
15876;SDS011;8037;51.666;7.834;2024-02-26T07:56:52;1.43;;;0.93;;
15876;SDS011;8037;51.666;7.834;2024-02-26T07:59:18;3.33;;;0.93;;
15876;SDS011;8037;51.666;7.834;2024-02-26T08:01:43;2.23;;;1.27;;
15876;SDS011;8037;51.666;7.834;2024-02-26T08:04:10;0.97;;;0.97;;
15876;SDS011;8037;51.666;7.834;2024-02-26T08:06:36;0.90;;;0.90;;
15876;SDS011;8037;51.666;7.834;2024-02-26T08:09:02;1.17;;;1.10;;
15876;SDS011;8037;51.666;7.834;2024-02-26T08:11:29;1.47;;;0.90;;
15876;SDS011;8037;51.666;7.834;2024-02-26T08:13:55;0.83;;;0.83;;
15876;SDS011;8037;51.666;7.834;2024-02-26T08:16:20;0.90;;;0.90;;
15876;SDS011;8037;51.666;7.834;2024-02-26T08:18:46;0.93;;;0.93;;
15876;SDS011;8037;51.666;7.834;2024-02-26T08:21:12;0.80;;;0.80;;
15876;SDS011;8037;51.666;7.834;2024-02-26T08:23:38;1.13;;;1.00;;
15876;SDS011;8037;51.666;7.834;2024-02-26T08:26:04;0.90;;;0.90;;
15876;SDS011;8037;51.666;7.834;2024-02-26T08:28:32;0.60;;;0.60;;
15876;SDS011;8037;51.666;7.834;2024-02-26T08:30:58;0.87;;;0.87;;
15876;SDS011;8037;51.666;7.834;2024-02-26T08:33:24;2.63;;;0.77;;
15876;SDS011;8037;51.666;7.834;2024-02-26T08:35:50;1.27;;;0.93;;
15876;SDS011;8037;51.666;7.834;2024-02-26T08:38:15;4.43;;;1.03;;
15876;SDS011;8037;51.666;7.834;2024-02-26T08:40:41;2.17;;;1.27;;
15876;SDS011;8037;51.666;7.834;2024-02-26T08:43:07;0.63;;;0.63;;
15876;SDS011;8037;51.666;7.834;2024-02-26T08:45:34;1.80;;;0.80;;
15876;SDS011;8037;51.666;7.834;2024-02-26T08:48:00;0.67;;;0.67;;
15876;SDS011;8037;51.666;7.834;2024-02-26T08:50:26;2.20;;;1.10;;
15876;SDS011;8037;51.666;7.834;2024-02-26T08:52:52;1.10;;;0.73;;
15876;SDS011;8037;51.666;7.834;2024-02-26T08:55:18;1.90;;;0.90;;
15876;SDS011;8037;51.666;7.834;2024-02-26T08:57:44;1.40;;;1.03;;
15876;SDS011;8037;51.666;7.834;2024-02-26T09:00:10;0.70;;;0.70;;
15876;SDS011;8037;51.666;7.834;2024-02-26T09:02:37;0.70;;;0.70;;
15876;SDS011;8037;51.666;7.834;2024-02-26T09:05:07;1.83;;;0.77;;
15876;SDS011;8037;51.666;7.834;2024-02-26T09:07:33;1.00;;;0.97;;
15876;SDS011;8037;51.666;7.834;2024-02-26T09:09:59;0.80;;;0.80;;
15876;SDS011;8037;51.666;7.834;2024-02-26T09:12:25;0.40;;;0.40;;
15876;SDS011;8037;51.666;7.834;2024-02-26T09:14:51;0.60;;;0.60;;
15876;SDS011;8037;51.666;7.834;2024-02-26T09:17:17;5.70;;;1.23;;
15876;SDS011;8037;51.666;7.834;2024-02-26T09:19:43;1.30;;;1.07;;
15876;SDS011;8037;51.666;7.834;2024-02-26T09:22:09;3.53;;;1.33;;
15876;SDS011;8037;51.666;7.834;2024-02-26T09:24:36;1.63;;;0.93;;
15876;SDS011;8037;51.666;7.834;2024-02-26T09:27:02;1.20;;;1.10;;
15876;SDS011;8037;51.666;7.834;2024-02-26T09:29:28;2.83;;;0.90;;
15876;SDS011;8037;51.666;7.834;2024-02-26T09:31:54;1.33;;;1.23;;
15876;SDS011;8037;51.666;7.834;2024-02-26T09:34:20;0.93;;;0.93;;
15876;SDS011;8037;51.666;7.834;2024-02-26T09:36:46;0.83;;;0.83;;
15876;SDS011;8037;51.666;7.834;2024-02-26T09:39:12;2.87;;;1.00;;
15876;SDS011;8037;51.666;7.834;2024-02-26T09:41:39;1.10;;;1.10;;
15876;SDS011;8037;51.666;7.834;2024-02-26T09:44:05;0.90;;;0.90;;
15876;SDS011;8037;51.666;7.834;2024-02-26T09:46:32;0.60;;;0.60;;
15876;SDS011;8037;51.666;7.834;2024-02-26T09:48:58;1.50;;;1.40;;
15876;SDS011;8037;51.666;7.834;2024-02-26T09:51:24;1.83;;;1.73;;
15876;SDS011;8037;51.666;7.834;2024-02-26T09:53:51;1.90;;;1.80;;
15876;SDS011;8037;51.666;7.834;2024-02-26T09:56:17;1.33;;;1.10;;
15876;SDS011;8037;51.666;7.834;2024-02-26T09:58:44;6.27;;;1.90;;
15876;SDS011;8037;51.666;7.834;2024-02-26T10:01:18;1.83;;;1.73;;
15876;SDS011;8037;51.666;7.834;2024-02-26T10:03:46;1.80;;;0.90;;
15876;SDS011;8037;51.666;7.834;2024-02-26T10:06:14;1.73;;;1.60;;
15876;SDS011;8037;51.666;7.834;2024-02-26T10:08:40;4.83;;;1.93;;
15876;SDS011;8037;51.666;7.834;2024-02-26T10:11:06;1.67;;;1.60;;
15876;SDS011;8037;51.666;7.834;2024-02-26T10:13:36;4.07;;;1.80;;
15876;SDS011;8037;51.666;7.834;2024-02-26T10:16:02;1.40;;;1.30;;
15876;SDS011;8037;51.666;7.834;2024-02-26T10:18:50;1.27;;;1.17;;
15876;SDS011;8037;51.666;7.834;2024-02-26T10:21:17;2.23;;;2.00;;
15876;SDS011;8037;51.666;7.834;2024-02-26T10:23:43;2.60;;;1.17;;
15876;SDS011;8037;51.666;7.834;2024-02-26T10:26:10;1.13;;;1.13;;
15876;SDS011;8037;51.666;7.834;2024-02-26T10:28:37;1.40;;;1.33;;
15876;SDS011;8037;51.666;7.834;2024-02-26T10:31:03;3.23;;;1.67;;
15876;SDS011;8037;51.666;7.834;2024-02-26T10:33:29;2.67;;;1.80;;
15876;SDS011;8037;51.666;7.834;2024-02-26T10:35:55;1.37;;;1.27;;
15876;SDS011;8037;51.666;7.834;2024-02-26T10:38:21;1.83;;;1.73;;
15876;SDS011;8037;51.666;7.834;2024-02-26T10:40:48;2.07;;;1.90;;
15876;SDS011;8037;51.666;7.834;2024-02-26T10:43:15;1.40;;;1.40;;
15876;SDS011;8037;51.666;7.834;2024-02-26T10:45:42;1.67;;;1.57;;
15876;SDS011;8037;51.666;7.834;2024-02-26T10:48:12;1.03;;;1.03;;
15876;SDS011;8037;51.666;7.834;2024-02-26T10:50:38;2.90;;;1.90;;
15876;SDS011;8037;51.666;7.834;2024-02-26T10:53:05;3.53;;;1.63;;
15876;SDS011;8037;51.666;7.834;2024-02-26T10:55:32;1.57;;;1.47;;
15876;SDS011;8037;51.666;7.834;2024-02-26T10:58:00;1.03;;;1.03;;
15876;SDS011;8037;51.666;7.834;2024-02-26T11:00:27;1.80;;;1.40;;
15876;SDS011;8037;51.666;7.834;2024-02-26T11:02:54;2.50;;;1.63;;
15876;SDS011;8037;51.666;7.834;2024-02-26T11:05:23;2.20;;;2.00;;
15876;SDS011;8037;51.666;7.834;2024-02-26T11:07:52;1.73;;;1.63;;
15876;SDS011;8037;51.666;7.834;2024-02-26T11:10:19;3.33;;;2.00;;
15876;SDS011;8037;51.666;7.834;2024-02-26T11:12:45;3.27;;;1.93;;
15876;SDS011;8037;51.666;7.834;2024-02-26T11:15:12;2.67;;;1.97;;
15876;SDS011;8037;51.666;7.834;2024-02-26T11:17:38;1.73;;;1.63;;
15876;SDS011;8037;51.666;7.834;2024-02-26T11:20:05;3.37;;;2.13;;
15876;SDS011;8037;51.666;7.834;2024-02-26T11:22:35;1.80;;;1.70;;
15876;SDS011;8037;51.666;7.834;2024-02-26T11:25:01;12.63;;;2.40;;
15876;SDS011;8037;51.666;7.834;2024-02-26T11:27:29;3.17;;;2.70;;
15876;SDS011;8037;51.666;7.834;2024-02-26T11:29:57;3.03;;;1.93;;
15876;SDS011;8037;51.666;7.834;2024-02-26T11:32:27;3.33;;;2.80;;
15876;SDS011;8037;51.666;7.834;2024-02-26T11:34:57;2.30;;;2.10;;
15876;SDS011;8037;51.666;7.834;2024-02-26T11:37:24;3.10;;;2.90;;
15876;SDS011;8037;51.666;7.834;2024-02-26T11:39:51;4.93;;;3.57;;
15876;SDS011;8037;51.666;7.834;2024-02-26T11:42:17;2.83;;;2.63;;
15876;SDS011;8037;51.666;7.834;2024-02-26T11:44:44;2.67;;;2.20;;
15876;SDS011;8037;51.666;7.834;2024-02-26T11:47:13;3.30;;;3.00;;
15876;SDS011;8037;51.666;7.834;2024-02-26T11:49:43;2.73;;;2.50;;
15876;SDS011;8037;51.666;7.834;2024-02-26T11:52:09;3.33;;;2.30;;
15876;SDS011;8037;51.666;7.834;2024-02-26T11:54:45;4.87;;;3.13;;
15876;SDS011;8037;51.666;7.834;2024-02-26T11:57:24;2.07;;;1.97;;
15876;SDS011;8037;51.666;7.834;2024-02-26T11:59:51;2.60;;;2.40;;
15876;SDS011;8037;51.666;7.834;2024-02-26T12:05:02;3.00;;;2.40;;
15876;SDS011;8037;51.666;7.834;2024-02-26T12:07:27;3.60;;;3.20;;
15876;SDS011;8037;51.666;7.834;2024-02-26T12:09:56;3.33;;;2.23;;
15876;SDS011;8037;51.666;7.834;2024-02-26T12:12:38;3.90;;;3.03;;
15876;SDS011;8037;51.666;7.834;2024-02-26T12:15:05;2.80;;;2.30;;
15876;SDS011;8037;51.666;7.834;2024-02-26T12:17:33;3.10;;;2.50;;
15876;SDS011;8037;51.666;7.834;2024-02-26T12:20:11;2.43;;;2.23;;
15876;SDS011;8037;51.666;7.834;2024-02-26T12:22:41;2.63;;;2.50;;
15876;SDS011;8037;51.666;7.834;2024-02-26T12:25:09;4.30;;;2.70;;
15876;SDS011;8037;51.666;7.834;2024-02-26T12:27:35;3.03;;;2.70;;
15876;SDS011;8037;51.666;7.834;2024-02-26T12:30:02;2.30;;;2.20;;
15876;SDS011;8037;51.666;7.834;2024-02-26T12:32:28;6.10;;;2.10;;
15876;SDS011;8037;51.666;7.834;2024-02-26T12:34:54;2.93;;;2.73;;
15876;SDS011;8037;51.666;7.834;2024-02-26T12:37:20;4.40;;;2.50;;
15876;SDS011;8037;51.666;7.834;2024-02-26T12:39:46;8.43;;;3.03;;
15876;SDS011;8037;51.666;7.834;2024-02-26T12:42:12;5.83;;;3.50;;
15876;SDS011;8037;51.666;7.834;2024-02-26T12:44:39;2.13;;;2.00;;
15876;SDS011;8037;51.666;7.834;2024-02-26T12:47:05;3.70;;;2.33;;
15876;SDS011;8037;51.666;7.834;2024-02-26T12:49:31;3.73;;;2.70;;
15876;SDS011;8037;51.666;7.834;2024-02-26T12:51:57;4.83;;;2.43;;
15876;SDS011;8037;51.666;7.834;2024-02-26T12:54:32;2.40;;;2.30;;
15876;SDS011;8037;51.666;7.834;2024-02-26T12:57:04;5.40;;;3.00;;
15876;SDS011;8037;51.666;7.834;2024-02-26T12:59:31;4.53;;;2.13;;
15876;SDS011;8037;51.666;7.834;2024-02-26T13:01:58;1.67;;;1.57;;
15876;SDS011;8037;51.666;7.834;2024-02-26T13:04:24;3.17;;;2.87;;
15876;SDS011;8037;51.666;7.834;2024-02-26T13:06:50;2.23;;;2.10;;
15876;SDS011;8037;51.666;7.834;2024-02-26T13:09:16;2.00;;;1.90;;
15876;SDS011;8037;51.666;7.834;2024-02-26T13:11:43;2.20;;;1.87;;
15876;SDS011;8037;51.666;7.834;2024-02-26T13:14:19;3.10;;;2.90;;
15876;SDS011;8037;51.666;7.834;2024-02-26T13:16:54;31.90;;;2.43;;
15876;SDS011;8037;51.666;7.834;2024-02-26T13:19:20;7.60;;;3.00;;
15876;SDS011;8037;51.666;7.834;2024-02-26T13:21:46;4.30;;;3.07;;
15876;SDS011;8037;51.666;7.834;2024-02-26T13:24:12;5.40;;;3.03;;
15876;SDS011;8037;51.666;7.834;2024-02-26T13:26:38;2.43;;;2.23;;
15876;SDS011;8037;51.666;7.834;2024-02-26T13:29:04;3.73;;;3.40;;
15876;SDS011;8037;51.666;7.834;2024-02-26T13:31:30;2.33;;;2.13;;
15876;SDS011;8037;51.666;7.834;2024-02-26T13:33:56;3.00;;;2.37;;
15876;SDS011;8037;51.666;7.834;2024-02-26T13:36:22;6.53;;;2.93;;
15876;SDS011;8037;51.666;7.834;2024-02-26T13:38:52;4.47;;;2.50;;
15876;SDS011;8037;51.666;7.834;2024-02-26T13:41:18;2.10;;;1.70;;
15876;SDS011;8037;51.666;7.834;2024-02-26T13:43:44;3.63;;;3.10;;
15876;SDS011;8037;51.666;7.834;2024-02-26T13:46:10;2.93;;;2.63;;
15876;SDS011;8037;51.666;7.834;2024-02-26T13:48:37;5.83;;;2.90;;
15876;SDS011;8037;51.666;7.834;2024-02-26T13:51:03;3.63;;;2.20;;
15876;SDS011;8037;51.666;7.834;2024-02-26T13:53:29;1.83;;;1.73;;
15876;SDS011;8037;51.666;7.834;2024-02-26T13:55:55;2.80;;;2.60;;
15876;SDS011;8037;51.666;7.834;2024-02-26T13:58:23;9.80;;;4.50;;
15876;SDS011;8037;51.666;7.834;2024-02-26T14:00:52;2.50;;;2.30;;
15876;SDS011;8037;51.666;7.834;2024-02-26T14:03:18;2.20;;;2.10;;
15876;SDS011;8037;51.666;7.834;2024-02-26T14:05:44;2.90;;;2.70;;
15876;SDS011;8037;51.666;7.834;2024-02-26T14:08:10;3.97;;;2.50;;
15876;SDS011;8037;51.666;7.834;2024-02-26T14:10:36;3.40;;;2.20;;
15876;SDS011;8037;51.666;7.834;2024-02-26T14:13:02;3.50;;;2.30;;
15876;SDS011;8037;51.666;7.834;2024-02-26T14:15:28;1.97;;;1.83;;
15876;SDS011;8037;51.666;7.834;2024-02-26T14:17:55;7.90;;;1.97;;
15876;SDS011;8037;51.666;7.834;2024-02-26T14:20:24;3.87;;;2.40;;
15876;SDS011;8037;51.666;7.834;2024-02-26T14:22:50;21.20;;;2.70;;
15876;SDS011;8037;51.666;7.834;2024-02-26T14:25:18;2.50;;;2.37;;
15876;SDS011;8037;51.666;7.834;2024-02-26T14:27:44;1.67;;;1.57;;
15876;SDS011;8037;51.666;7.834;2024-02-26T14:30:11;1.73;;;1.63;;
15876;SDS011;8037;51.666;7.834;2024-02-26T14:32:37;1.77;;;1.67;;
15876;SDS011;8037;51.666;7.834;2024-02-26T14:35:12;4.23;;;3.87;;
15876;SDS011;8037;51.666;7.834;2024-02-26T14:37:38;1.70;;;1.60;;
15876;SDS011;8037;51.666;7.834;2024-02-26T14:40:04;1.90;;;1.80;;
15876;SDS011;8037;51.666;7.834;2024-02-26T14:42:30;2.40;;;2.20;;
15876;SDS011;8037;51.666;7.834;2024-02-26T14:44:56;3.37;;;2.10;;
15876;SDS011;8037;51.666;7.834;2024-02-26T14:47:22;1.97;;;1.87;;
15876;SDS011;8037;51.666;7.834;2024-02-26T14:49:48;1.40;;;1.30;;
15876;SDS011;8037;51.666;7.834;2024-02-26T14:52:16;1.77;;;1.67;;
15876;SDS011;8037;51.666;7.834;2024-02-26T14:54:42;1.67;;;1.57;;
15876;SDS011;8037;51.666;7.834;2024-02-26T14:57:08;3.57;;;1.50;;
15876;SDS011;8037;51.666;7.834;2024-02-26T14:59:34;1.70;;;1.60;;
15876;SDS011;8037;51.666;7.834;2024-02-26T15:02:01;3.90;;;1.73;;
15876;SDS011;8037;51.666;7.834;2024-02-26T15:04:27;2.57;;;2.13;;
15876;SDS011;8037;51.666;7.834;2024-02-26T15:06:53;2.40;;;1.50;;
15876;SDS011;8037;51.666;7.834;2024-02-26T15:09:19;1.43;;;1.30;;
15876;SDS011;8037;51.666;7.834;2024-02-26T15:11:46;2.70;;;1.40;;